TimeEST,TemperatureF,Dew PointF,Humidity,Sea Level PressureIn,VisibilityMPH,Wind Direction,Wind SpeedMPH,Gust SpeedMPH,PrecipitationIn,Events,Conditions,WindDirDegrees,DateUTC
12:11 AM,44.6,39.2,81,29.68,10.0,South,15.0,19.6,N/A,,Overcast,190,2013-02-11 05:11:00
12:31 AM,44.6,41.0,87,29.68,10.0,South,12.7,-,N/A,,Overcast,190,2013-02-11 05:31:00
12:52 AM,44.6,41.0,87,29.68,10.0,SSW,9.2,17.3,N/A,,Overcast,200,2013-02-11 05:52:00
1:12 AM,44.6,42.8,93,29.68,10.0,SSW,11.5,16.1,N/A,,Overcast,200,2013-02-11 06:12:00
1:32 AM,46.4,42.8,87,29.66,10.0,South,11.5,18.4,N/A,,Overcast,180,2013-02-11 06:32:00
1:52 AM,46.4,42.8,87,29.66,10.0,South,12.7,17.3,N/A,,Overcast,190,2013-02-11 06:52:00
2:12 AM,46.4,42.8,87,29.65,10.0,South,13.8,-,N/A,,Overcast,190,2013-02-11 07:12:00
2:32 AM,44.6,42.8,93,29.64,10.0,South,13.8,20.7,N/A,,Overcast,190,2013-02-11 07:32:00
3:12 AM,46.4,42.8,87,29.63,10.0,South,15.0,21.9,N/A,,Overcast,190,2013-02-11 08:12:00
3:32 AM,46.4,42.8,87,29.62,10.0,South,15.0,-,N/A,,Overcast,190,2013-02-11 08:32:00
3:52 AM,46.4,42.8,87,29.61,10.0,South,13.8,-,N/A,,Overcast,190,2013-02-11 08:52:00
4:33 AM,44.6,42.8,93,29.59,10.0,South,15.0,21.9,N/A,,Mostly Cloudy,190,2013-02-11 09:33:00
4:53 AM,44.6,42.8,93,29.59,10.0,South,13.8,23.0,N/A,,Mostly Cloudy,190,2013-02-11 09:53:00
5:33 AM,44.6,42.8,93,29.58,10.0,South,15.0,18.4,N/A,,Clear,190,2013-02-11 10:33:00
5:53 AM,44.6,42.8,93,29.58,10.0,SSW,12.7,-,N/A,,Scattered Clouds,200,2013-02-11 10:53:00
6:13 AM,46.4,42.8,87,29.57,10.0,SSW,16.1,-,N/A,,Mostly Cloudy,210,2013-02-11 11:13:00
7:34 AM,44.6,37.4,76,29.60,10.0,WSW,19.6,25.3,N/A,,Mostly Cloudy,240,2013-02-11 12:34:00
8:14 AM,42.8,33.8,70,29.62,10.0,WSW,15.0,24.2,N/A,,Overcast,240,2013-02-11 13:14:00
8:34 AM,42.8,33.8,70,29.62,10.0,WSW,21.9,28.8,N/A,,Mostly Cloudy,240,2013-02-11 13:34:00
8:54 AM,42.8,32.0,66,29.62,10.0,WSW,18.4,34.5,N/A,,Mostly Cloudy,250,2013-02-11 13:54:00
9:14 AM,42.8,30.2,61,29.63,10.0,SW,27.6,35.7,N/A,,Overcast,230,2013-02-11 14:14:00
9:54 AM,41.0,30.2,65,29.64,10.0,WSW,27.6,46.0,N/A,,Overcast,250,2013-02-11 14:54:00
10:14 AM,39.2,28.4,65,29.65,10.0,WSW,36.8,43.7,N/A,,Overcast,240,2013-02-11 15:14:00
10:35 AM,37.4,28.4,70,29.66,10.0,WSW,25.3,41.4,N/A,,Overcast,250,2013-02-11 15:35:00
10:55 AM,37.4,30.2,75,29.66,10.0,WSW,19.6,39.1,N/A,,Overcast,250,2013-02-11 15:55:00
11:55 AM,37.4,26.6,65,29.68,10.0,WSW,26.5,42.6,N/A,,Overcast,240,2013-02-11 16:55:00
12:15 PM,37.4,26.6,65,29.68,10.0,WSW,31.1,43.7,N/A,,Overcast,240,2013-02-11 17:15:00
1:15 PM,35.6,28.4,75,29.68,10.0,WSW,23.0,35.7,N/A,,Overcast,240,2013-02-11 18:15:00
1:35 PM,35.6,28.4,75,29.69,10.0,WSW,26.5,38.0,N/A,,Overcast,240,2013-02-11 18:35:00
1:56 PM,37.4,28.4,70,29.69,10.0,WSW,27.6,35.7,N/A,,Overcast,250,2013-02-11 18:56:00
2:11 PM,37.4,26.6,65,29.68,10.0,WSW,26.5,34.5,N/A,,Overcast,240,2013-02-11 19:11:00
2:31 PM,37.4,28.4,70,29.68,10.0,WSW,24.2,36.8,N/A,,Overcast,240,2013-02-11 19:31:00
2:51 PM,37.4,28.4,70,29.69,10.0,WSW,23.0,35.7,N/A,,Overcast,250,2013-02-11 19:51:00
3:11 PM,37.4,28.4,70,29.70,10.0,WSW,24.2,38.0,N/A,,Overcast,240,2013-02-11 20:11:00
3:31 PM,37.4,28.4,70,29.71,10.0,WSW,23.0,35.7,N/A,,Overcast,240,2013-02-11 20:31:00
3:51 PM,35.6,28.4,75,29.71,10.0,WSW,28.8,35.7,N/A,,Overcast,250,2013-02-11 20:51:00
4:11 PM,37.4,26.6,65,29.73,10.0,WSW,29.9,36.8,N/A,,Overcast,250,2013-02-11 21:11:00
4:31 PM,35.6,26.6,70,29.74,10.0,WSW,24.2,32.2,N/A,,Overcast,240,2013-02-11 21:31:00
4:52 PM,35.6,26.6,70,29.75,10.0,WSW,24.2,33.4,N/A,,Overcast,240,2013-02-11 21:52:00
5:52 PM,35.6,28.4,75,29.77,10.0,WSW,21.9,29.9,N/A,,Overcast,250,2013-02-11 22:52:00
6:12 PM,35.6,26.6,70,29.78,10.0,WSW,23.0,35.7,N/A,,Overcast,250,2013-02-11 23:12:00
6:32 PM,35.6,26.6,70,29.79,10.0,WSW,24.2,43.7,N/A,,Overcast,250,2013-02-11 23:32:00
6:52 PM,35.6,28.4,75,29.80,10.0,WSW,25.3,36.8,N/A,,Overcast,250,2013-02-11 23:52:00
7:12 PM,35.6,26.6,70,29.81,10.0,West,25.3,36.8,N/A,,Overcast,260,2013-02-12 00:12:00
7:32 PM,35.6,26.6,70,29.81,10.0,WSW,18.4,26.5,N/A,,Overcast,250,2013-02-12 00:32:00
7:52 PM,35.6,26.6,70,29.81,10.0,West,19.6,35.7,N/A,,Overcast,260,2013-02-12 00:52:00
8:12 PM,35.6,26.6,70,29.82,10.0,West,18.4,27.6,N/A,,Overcast,260,2013-02-12 01:12:00
8:33 PM,35.6,26.6,70,29.83,10.0,West,20.7,29.9,N/A,,Overcast,260,2013-02-12 01:33:00
8:53 PM,35.6,26.6,70,29.83,10.0,West,21.9,26.5,N/A,,Overcast,270,2013-02-12 01:53:00
9:13 PM,35.6,26.6,70,29.84,10.0,West,25.3,28.8,N/A,,Overcast,270,2013-02-12 02:13:00
9:33 PM,35.6,26.6,70,29.85,10.0,West,17.3,24.2,N/A,,Overcast,270,2013-02-12 02:33:00
9:53 PM,35.6,26.6,70,29.85,10.0,West,17.3,27.6,N/A,,Overcast,270,2013-02-12 02:53:00
10:13 PM,33.8,26.6,75,29.85,10.0,West,16.1,24.2,N/A,,Overcast,270,2013-02-12 03:13:00
10:33 PM,33.8,26.6,75,29.85,10.0,West,13.8,-,N/A,,Overcast,260,2013-02-12 03:33:00
10:53 PM,33.8,26.6,75,29.86,10.0,West,20.7,-,N/A,,Overcast,270,2013-02-12 03:53:00
11:13 PM,33.8,26.6,75,29.86,10.0,West,17.3,-,N/A,,Overcast,270,2013-02-12 04:13:00
11:34 PM,33.8,26.6,75,29.87,10.0,West,15.0,23.0,N/A,,Overcast,260,2013-02-12 04:34:00